sensor_id;sensor_type;location;lat;lon;timestamp;P1;durP1;ratioP1;P2;durP2;ratioP2
5987;SDS011;3021;51.000;6.980;2023-06-22T00:01:15;6.68;;;4.40;;
5987;SDS011;3021;51.000;6.980;2023-06-22T00:03:40;5.60;;;4.25;;
5987;SDS011;3021;51.000;6.980;2023-06-22T00:06:05;7.10;;;4.15;;
5987;SDS011;3021;51.000;6.980;2023-06-22T00:08:31;5.10;;;4.18;;
5987;SDS011;3021;51.000;6.980;2023-06-22T00:10:56;8.45;;;4.72;;
5987;SDS011;3021;51.000;6.980;2023-06-22T00:13:21;5.65;;;4.10;;
5987;SDS011;3021;51.000;6.980;2023-06-22T00:15:47;6.43;;;3.90;;
5987;SDS011;3021;51.000;6.980;2023-06-22T00:18:12;5.38;;;4.63;;
5987;SDS011;3021;51.000;6.980;2023-06-22T00:20:38;8.18;;;4.68;;
5987;SDS011;3021;51.000;6.980;2023-06-22T00:23:04;4.75;;;4.15;;
5987;SDS011;3021;51.000;6.980;2023-06-22T00:25:37;6.47;;;3.75;;
5987;SDS011;3021;51.000;6.980;2023-06-22T00:28:05;5.45;;;4.35;;
5987;SDS011;3021;51.000;6.980;2023-06-22T00:30:31;4.72;;;3.92;;
5987;SDS011;3021;51.000;6.980;2023-06-22T00:32:57;8.27;;;3.90;;
5987;SDS011;3021;51.000;6.980;2023-06-22T00:35:23;6.50;;;3.90;;
5987;SDS011;3021;51.000;6.980;2023-06-22T00:37:53;7.00;;;4.25;;
5987;SDS011;3021;51.000;6.980;2023-06-22T00:40:25;7.18;;;4.53;;
5987;SDS011;3021;51.000;6.980;2023-06-22T00:42:51;5.30;;;3.92;;
5987;SDS011;3021;51.000;6.980;2023-06-22T00:45:16;8.27;;;4.03;;
5987;SDS011;3021;51.000;6.980;2023-06-22T00:47:42;3.95;;;3.45;;
5987;SDS011;3021;51.000;6.980;2023-06-22T00:50:08;5.47;;;4.00;;
5987;SDS011;3021;51.000;6.980;2023-06-22T00:52:43;4.55;;;3.75;;
5987;SDS011;3021;51.000;6.980;2023-06-22T00:55:09;7.30;;;4.55;;
5987;SDS011;3021;51.000;6.980;2023-06-22T00:57:35;4.63;;;3.78;;
5987;SDS011;3021;51.000;6.980;2023-06-22T01:00:02;7.40;;;3.63;;
5987;SDS011;3021;51.000;6.980;2023-06-22T01:02:31;8.50;;;4.15;;
5987;SDS011;3021;51.000;6.980;2023-06-22T01:04:57;4.85;;;4.20;;
5987;SDS011;3021;51.000;6.980;2023-06-22T01:07:34;6.05;;;4.30;;
5987;SDS011;3021;51.000;6.980;2023-06-22T01:10:07;6.03;;;3.70;;
5987;SDS011;3021;51.000;6.980;2023-06-22T01:12:43;4.35;;;3.95;;
5987;SDS011;3021;51.000;6.980;2023-06-22T01:15:14;5.18;;;4.00;;
5987;SDS011;3021;51.000;6.980;2023-06-22T01:17:44;6.05;;;4.20;;
5987;SDS011;3021;51.000;6.980;2023-06-22T01:20:10;4.70;;;4.10;;
5987;SDS011;3021;51.000;6.980;2023-06-22T01:26:02;6.47;;;4.07;;
5987;SDS011;3021;51.000;6.980;2023-06-22T01:28:44;6.00;;;4.60;;
5987;SDS011;3021;51.000;6.980;2023-06-22T01:31:18;6.57;;;4.32;;
5987;SDS011;3021;51.000;6.980;2023-06-22T01:33:48;7.10;;;3.92;;
5987;SDS011;3021;51.000;6.980;2023-06-22T01:36:16;11.65;;;4.50;;
5987;SDS011;3021;51.000;6.980;2023-06-22T01:38:42;6.60;;;3.97;;
5987;SDS011;3021;51.000;6.980;2023-06-22T01:41:08;5.45;;;4.50;;
5987;SDS011;3021;51.000;6.980;2023-06-22T01:43:34;9.07;;;4.15;;
5987;SDS011;3021;51.000;6.980;2023-06-22T01:46:01;10.38;;;4.05;;
5987;SDS011;3021;51.000;6.980;2023-06-22T01:48:27;10.00;;;3.90;;
5987;SDS011;3021;51.000;6.980;2023-06-22T01:50:53;4.80;;;3.72;;
5987;SDS011;3021;51.000;6.980;2023-06-22T01:53:22;6.32;;;4.20;;
5987;SDS011;3021;51.000;6.980;2023-06-22T01:55:48;4.10;;;3.72;;
5987;SDS011;3021;51.000;6.980;2023-06-22T01:58:14;5.68;;;3.63;;
5987;SDS011;3021;51.000;6.980;2023-06-22T02:00:40;6.93;;;3.80;;
5987;SDS011;3021;51.000;6.980;2023-06-22T02:03:13;5.18;;;3.70;;
5987;SDS011;3021;51.000;6.980;2023-06-22T02:06:04;4.43;;;3.60;;
5987;SDS011;3021;51.000;6.980;2023-06-22T02:08:33;4.63;;;3.67;;
5987;SDS011;3021;51.000;6.980;2023-06-22T02:11:05;6.50;;;4.10;;
5987;SDS011;3021;51.000;6.980;2023-06-22T02:13:31;4.50;;;3.70;;
5987;SDS011;3021;51.000;6.980;2023-06-22T02:15:57;5.72;;;3.92;;
5987;SDS011;3021;51.000;6.980;2023-06-22T02:18:23;4.47;;;3.70;;
5987;SDS011;3021;51.000;6.980;2023-06-22T02:20:48;4.72;;;3.70;;
5987;SDS011;3021;51.000;6.980;2023-06-22T02:23:14;5.57;;;3.72;;
5987;SDS011;3021;51.000;6.980;2023-06-22T02:25:39;5.55;;;3.35;;
5987;SDS011;3021;51.000;6.980;2023-06-22T02:28:04;5.43;;;3.70;;
5987;SDS011;3021;51.000;6.980;2023-06-22T02:30:30;5.05;;;3.42;;
5987;SDS011;3021;51.000;6.980;2023-06-22T02:32:55;5.28;;;4.15;;
5987;SDS011;3021;51.000;6.980;2023-06-22T02:35:24;5.07;;;3.67;;
5987;SDS011;3021;51.000;6.980;2023-06-22T02:37:51;8.43;;;4.30;;
5987;SDS011;3021;51.000;6.980;2023-06-22T02:40:16;5.80;;;3.90;;
5987;SDS011;3021;51.000;6.980;2023-06-22T02:42:42;3.83;;;3.42;;
5987;SDS011;3021;51.000;6.980;2023-06-22T02:45:07;5.35;;;3.55;;
5987;SDS011;3021;51.000;6.980;2023-06-22T02:47:33;5.03;;;3.95;;
5987;SDS011;3021;51.000;6.980;2023-06-22T02:49:58;6.93;;;3.65;;
5987;SDS011;3021;51.000;6.980;2023-06-22T02:52:23;7.38;;;4.18;;
5987;SDS011;3021;51.000;6.980;2023-06-22T02:54:49;4.22;;;3.40;;
5987;SDS011;3021;51.000;6.980;2023-06-22T02:57:14;5.25;;;3.13;;
5987;SDS011;3021;51.000;6.980;2023-06-22T02:59:40;4.95;;;3.83;;
5987;SDS011;3021;51.000;6.980;2023-06-22T03:02:07;4.57;;;3.42;;
5987;SDS011;3021;51.000;6.980;2023-06-22T03:04:33;5.45;;;3.65;;
5987;SDS011;3021;51.000;6.980;2023-06-22T03:06:58;5.38;;;3.85;;
5987;SDS011;3021;51.000;6.980;2023-06-22T03:09:26;4.95;;;3.70;;
5987;SDS011;3021;51.000;6.980;2023-06-22T03:11:53;4.65;;;3.83;;
5987;SDS011;3021;51.000;6.980;2023-06-22T03:14:19;8.05;;;3.67;;
5987;SDS011;3021;51.000;6.980;2023-06-22T03:16:44;4.65;;;3.63;;
5987;SDS011;3021;51.000;6.980;2023-06-22T03:19:09;4.97;;;3.80;;
5987;SDS011;3021;51.000;6.980;2023-06-22T03:21:36;6.07;;;3.40;;
5987;SDS011;3021;51.000;6.980;2023-06-22T03:24:03;4.53;;;3.38;;
5987;SDS011;3021;51.000;6.980;2023-06-22T03:26:29;6.97;;;4.25;;
5987;SDS011;3021;51.000;6.980;2023-06-22T03:28:55;7.30;;;4.20;;
5987;SDS011;3021;51.000;6.980;2023-06-22T03:31:20;4.32;;;3.47;;
5987;SDS011;3021;51.000;6.980;2023-06-22T03:33:46;5.53;;;4.43;;
5987;SDS011;3021;51.000;6.980;2023-06-22T03:36:13;5.45;;;3.97;;
5987;SDS011;3021;51.000;6.980;2023-06-22T03:38:39;5.70;;;3.95;;
5987;SDS011;3021;51.000;6.980;2023-06-22T03:41:04;4.82;;;4.32;;
5987;SDS011;3021;51.000;6.980;2023-06-22T03:43:29;5.32;;;4.03;;
5987;SDS011;3021;51.000;6.980;2023-06-22T03:45:54;7.30;;;4.47;;
5987;SDS011;3021;51.000;6.980;2023-06-22T03:48:20;5.85;;;4.45;;
5987;SDS011;3021;51.000;6.980;2023-06-22T03:50:45;5.68;;;3.90;;
5987;SDS011;3021;51.000;6.980;2023-06-22T03:53:10;5.43;;;4.07;;
5987;SDS011;3021;51.000;6.980;2023-06-22T03:55:36;7.55;;;3.72;;
5987;SDS011;3021;51.000;6.980;2023-06-22T03:58:01;6.97;;;4.30;;
5987;SDS011;3021;51.000;6.980;2023-06-22T04:00:30;5.70;;;4.50;;
5987;SDS011;3021;51.000;6.980;2023-06-22T04:02:56;4.80;;;4.20;;
5987;SDS011;3021;51.000;6.980;2023-06-22T04:05:22;5.07;;;4.13;;
5987;SDS011;3021;51.000;6.980;2023-06-22T04:07:48;5.07;;;4.38;;
5987;SDS011;3021;51.000;6.980;2023-06-22T04:10:13;6.88;;;4.65;;
5987;SDS011;3021;51.000;6.980;2023-06-22T04:12:38;5.22;;;4.45;;
5987;SDS011;3021;51.000;6.980;2023-06-22T04:15:04;5.53;;;4.15;;
5987;SDS011;3021;51.000;6.980;2023-06-22T04:17:30;5.25;;;4.53;;
5987;SDS011;3021;51.000;6.980;2023-06-22T04:19:55;5.60;;;4.32;;
5987;SDS011;3021;51.000;6.980;2023-06-22T04:22:20;6.43;;;4.72;;
5987;SDS011;3021;51.000;6.980;2023-06-22T04:24:45;6.70;;;4.97;;
5987;SDS011;3021;51.000;6.980;2023-06-22T04:27:11;6.50;;;4.97;;
5987;SDS011;3021;51.000;6.980;2023-06-22T04:29:36;6.65;;;5.45;;
5987;SDS011;3021;51.000;6.980;2023-06-22T04:32:03;6.60;;;5.20;;
5987;SDS011;3021;51.000;6.980;2023-06-22T04:34:30;5.97;;;5.35;;
5987;SDS011;3021;51.000;6.980;2023-06-22T04:36:55;7.43;;;5.63;;
5987;SDS011;3021;51.000;6.980;2023-06-22T04:39:21;7.10;;;5.32;;
5987;SDS011;3021;51.000;6.980;2023-06-22T04:41:47;7.88;;;5.55;;
5987;SDS011;3021;51.000;6.980;2023-06-22T04:46:38;7.80;;;6.10;;
5987;SDS011;3021;51.000;6.980;2023-06-22T04:49:05;7.88;;;6.30;;
5987;SDS011;3021;51.000;6.980;2023-06-22T04:51:41;6.85;;;5.82;;
5987;SDS011;3021;51.000;6.980;2023-06-22T04:54:07;7.85;;;6.30;;
5987;SDS011;3021;51.000;6.980;2023-06-22T04:56:34;6.22;;;5.63;;
5987;SDS011;3021;51.000;6.980;2023-06-22T04:58:59;8.23;;;6.18;;
5987;SDS011;3021;51.000;6.980;2023-06-22T05:01:25;8.30;;;5.75;;
5987;SDS011;3021;51.000;6.980;2023-06-22T05:03:51;8.38;;;6.13;;
5987;SDS011;3021;51.000;6.980;2023-06-22T05:06:20;8.85;;;6.03;;
5987;SDS011;3021;51.000;6.980;2023-06-22T05:08:46;8.60;;;6.25;;
5987;SDS011;3021;51.000;6.980;2023-06-22T05:11:12;7.18;;;5.88;;
5987;SDS011;3021;51.000;6.980;2023-06-22T05:13:37;6.88;;;5.90;;
5987;SDS011;3021;51.000;6.980;2023-06-22T05:16:02;7.63;;;5.78;;
5987;SDS011;3021;51.000;6.980;2023-06-22T05:18:29;11.95;;;6.45;;
5987;SDS011;3021;51.000;6.980;2023-06-22T05:20:54;8.85;;;6.13;;
5987;SDS011;3021;51.000;6.980;2023-06-22T05:23:20;8.48;;;6.28;;
5987;SDS011;3021;51.000;6.980;2023-06-22T05:25:45;7.20;;;5.53;;
5987;SDS011;3021;51.000;6.980;2023-06-22T05:28:11;9.18;;;6.60;;
5987;SDS011;3021;51.000;6.980;2023-06-22T05:30:37;7.95;;;6.00;;
5987;SDS011;3021;51.000;6.980;2023-06-22T05:33:03;7.40;;;5.95;;
5987;SDS011;3021;51.000;6.980;2023-06-22T05:35:28;7.90;;;6.28;;
5987;SDS011;3021;51.000;6.980;2023-06-22T05:37:54;8.45;;;6.70;;
5987;SDS011;3021;51.000;6.980;2023-06-22T05:40:20;9.05;;;6.32;;
5987;SDS011;3021;51.000;6.980;2023-06-22T05:42:45;7.30;;;5.70;;
5987;SDS011;3021;51.000;6.980;2023-06-22T05:45:11;8.90;;;5.93;;
5987;SDS011;3021;51.000;6.980;2023-06-22T05:47:36;11.90;;;7.22;;
5987;SDS011;3021;51.000;6.980;2023-06-22T05:50:01;9.55;;;7.10;;
5987;SDS011;3021;51.000;6.980;2023-06-22T05:52:31;8.10;;;7.10;;
5987;SDS011;3021;51.000;6.980;2023-06-22T05:54:56;11.52;;;7.15;;
5987;SDS011;3021;51.000;6.980;2023-06-22T05:57:22;12.88;;;6.78;;
5987;SDS011;3021;51.000;6.980;2023-06-22T05:59:47;7.95;;;6.93;;
5987;SDS011;3021;51.000;6.980;2023-06-22T06:02:12;11.07;;;7.75;;
5987;SDS011;3021;51.000;6.980;2023-06-22T06:04:38;9.25;;;6.90;;
5987;SDS011;3021;51.000;6.980;2023-06-22T06:07:03;9.55;;;7.25;;
5987;SDS011;3021;51.000;6.980;2023-06-22T06:09:28;8.57;;;6.97;;
5987;SDS011;3021;51.000;6.980;2023-06-22T06:11:54;10.57;;;7.90;;
5987;SDS011;3021;51.000;6.980;2023-06-22T06:14:19;8.77;;;6.95;;
5987;SDS011;3021;51.000;6.980;2023-06-22T06:16:45;8.88;;;7.93;;
5987;SDS011;3021;51.000;6.980;2023-06-22T06:19:10;9.48;;;7.60;;
5987;SDS011;3021;51.000;6.980;2023-06-22T06:21:36;8.75;;;7.40;;
5987;SDS011;3021;51.000;6.980;2023-06-22T06:24:01;8.38;;;6.93;;
5987;SDS011;3021;51.000;6.980;2023-06-22T06:26:26;8.70;;;7.80;;
5987;SDS011;3021;51.000;6.980;2023-06-22T06:28:57;10.48;;;7.60;;
5987;SDS011;3021;51.000;6.980;2023-06-22T06:31:24;13.02;;;7.60;;
5987;SDS011;3021;51.000;6.980;2023-06-22T06:33:49;8.25;;;7.43;;
5987;SDS011;3021;51.000;6.980;2023-06-22T06:36:15;9.10;;;7.30;;
5987;SDS011;3021;51.000;6.980;2023-06-22T06:38:41;9.05;;;7.72;;
5987;SDS011;3021;51.000;6.980;2023-06-22T06:41:06;10.93;;;8.02;;
5987;SDS011;3021;51.000;6.980;2023-06-22T06:43:32;8.45;;;7.45;;
5987;SDS011;3021;51.000;6.980;2023-06-22T06:45:57;9.38;;;8.38;;
5987;SDS011;3021;51.000;6.980;2023-06-22T06:48:22;9.88;;;7.72;;
5987;SDS011;3021;51.000;6.980;2023-06-22T06:50:48;8.25;;;7.45;;
5987;SDS011;3021;51.000;6.980;2023-06-22T06:53:13;9.90;;;8.20;;
5987;SDS011;3021;51.000;6.980;2023-06-22T06:55:39;9.15;;;7.60;;
5987;SDS011;3021;51.000;6.980;2023-06-22T06:58:04;9.40;;;7.80;;
5987;SDS011;3021;51.000;6.980;2023-06-22T07:00:32;9.38;;;7.43;;
5987;SDS011;3021;51.000;6.980;2023-06-22T07:02:58;8.98;;;7.30;;
5987;SDS011;3021;51.000;6.980;2023-06-22T07:05:23;7.93;;;6.88;;
5987;SDS011;3021;51.000;6.980;2023-06-22T07:07:48;8.75;;;7.55;;
5987;SDS011;3021;51.000;6.980;2023-06-22T07:10:14;7.32;;;6.55;;
5987;SDS011;3021;51.000;6.980;2023-06-22T07:12:40;8.32;;;7.30;;
5987;SDS011;3021;51.000;6.980;2023-06-22T07:15:06;9.98;;;6.93;;
5987;SDS011;3021;51.000;6.980;2023-06-22T07:17:33;10.00;;;6.78;;
5987;SDS011;3021;51.000;6.980;2023-06-22T07:19:59;7.30;;;6.47;;
5987;SDS011;3021;51.000;6.980;2023-06-22T07:22:24;9.25;;;7.13;;
5987;SDS011;3021;51.000;6.980;2023-06-22T07:24:50;7.38;;;6.65;;
5987;SDS011;3021;51.000;6.980;2023-06-22T07:27:15;7.25;;;6.55;;
5987;SDS011;3021;51.000;6.980;2023-06-22T07:29:44;8.07;;;6.10;;
5987;SDS011;3021;51.000;6.980;2023-06-22T07:32:09;8.00;;;6.22;;
5987;SDS011;3021;51.000;6.980;2023-06-22T07:34:34;10.25;;;6.53;;
5987;SDS011;3021;51.000;6.980;2023-06-22T07:37:00;7.68;;;6.88;;
5987;SDS011;3021;51.000;6.980;2023-06-22T07:39:26;9.63;;;6.93;;
5987;SDS011;3021;51.000;6.980;2023-06-22T07:41:51;8.10;;;7.05;;
5987;SDS011;3021;51.000;6.980;2023-06-22T07:44:17;7.97;;;6.70;;
5987;SDS011;3021;51.000;6.980;2023-06-22T07:46:42;10.50;;;6.40;;
5987;SDS011;3021;51.000;6.980;2023-06-22T07:49:08;7.03;;;6.28;;
5987;SDS011;3021;51.000;6.980;2023-06-22T07:51:33;6.85;;;6.00;;
5987;SDS011;3021;51.000;6.980;2023-06-22T07:53:59;7.55;;;6.60;;
5987;SDS011;3021;51.000;6.980;2023-06-22T07:56:24;7.70;;;6.47;;
5987;SDS011;3021;51.000;6.980;2023-06-22T07:58:50;7.68;;;6.07;;
5987;SDS011;3021;51.000;6.980;2023-06-22T08:01:15;9.02;;;6.10;;
5987;SDS011;3021;51.000;6.980;2023-06-22T08:03:41;7.30;;;6.43;;
5987;SDS011;3021;51.000;6.980;2023-06-22T08:06:07;8.55;;;7.03;;
5987;SDS011;3021;51.000;6.980;2023-06-22T08:08:34;9.93;;;6.53;;
5987;SDS011;3021;51.000;6.980;2023-06-22T08:11:00;7.38;;;6.25;;
5987;SDS011;3021;51.000;6.980;2023-06-22T08:13:26;6.65;;;5.85;;
5987;SDS011;3021;51.000;6.980;2023-06-22T08:15:51;10.25;;;7.47;;
5987;SDS011;3021;51.000;6.980;2023-06-22T08:18:16;6.80;;;6.15;;
5987;SDS011;3021;51.000;6.980;2023-06-22T08:20:42;7.75;;;6.55;;
5987;SDS011;3021;51.000;6.980;2023-06-22T08:23:07;6.90;;;6.07;;
5987;SDS011;3021;51.000;6.980;2023-06-22T08:25:33;8.40;;;6.85;;
5987;SDS011;3021;51.000;6.980;2023-06-22T08:27:59;7.65;;;6.60;;
5987;SDS011;3021;51.000;6.980;2023-06-22T08:30:25;8.35;;;6.68;;
5987;SDS011;3021;51.000;6.980;2023-06-22T08:32:51;9.43;;;6.90;;
5987;SDS011;3021;51.000;6.980;2023-06-22T08:35:16;7.57;;;6.22;;
5987;SDS011;3021;51.000;6.980;2023-06-22T08:37:42;7.68;;;6.53;;
5987;SDS011;3021;51.000;6.980;2023-06-22T08:40:07;9.00;;;6.78;;
5987;SDS011;3021;51.000;6.980;2023-06-22T08:42:35;7.50;;;6.80;;
5987;SDS011;3021;51.000;6.980;2023-06-22T08:45:01;6.95;;;6.25;;
5987;SDS011;3021;51.000;6.980;2023-06-22T08:47:29;9.07;;;6.38;;
5987;SDS011;3021;51.000;6.980;2023-06-22T08:49:55;6.65;;;5.88;;
5987;SDS011;3021;51.000;6.980;2023-06-22T08:52:20;7.32;;;6.28;;
5987;SDS011;3021;51.000;6.980;2023-06-22T08:54:46;7.15;;;6.35;;
5987;SDS011;3021;51.000;6.980;2023-06-22T08:57:12;7.13;;;6.47;;
5987;SDS011;3021;51.000;6.980;2023-06-22T08:59:37;10.45;;;6.78;;
5987;SDS011;3021;51.000;6.980;2023-06-22T09:02:03;7.53;;;6.63;;
5987;SDS011;3021;51.000;6.980;2023-06-22T09:04:28;9.13;;;7.20;;
5987;SDS011;3021;51.000;6.980;2023-06-22T09:06:54;7.50;;;6.80;;
5987;SDS011;3021;51.000;6.980;2023-06-22T09:09:20;8.27;;;7.10;;
5987;SDS011;3021;51.000;6.980;2023-06-22T09:11:46;7.85;;;7.07;;
5987;SDS011;3021;51.000;6.980;2023-06-22T09:14:12;8.48;;;7.28;;
5987;SDS011;3021;51.000;6.980;2023-06-22T09:16:37;6.90;;;6.22;;
5987;SDS011;3021;51.000;6.980;2023-06-22T09:19:02;8.05;;;6.90;;
5987;SDS011;3021;51.000;6.980;2023-06-22T09:21:28;7.68;;;6.88;;
5987;SDS011;3021;51.000;6.980;2023-06-22T09:23:54;7.82;;;7.03;;
5987;SDS011;3021;51.000;6.980;2023-06-22T09:26:19;8.75;;;6.60;;
5987;SDS011;3021;51.000;6.980;2023-06-22T09:28:46;8.75;;;6.35;;
5987;SDS011;3021;51.000;6.980;2023-06-22T09:31:12;21.20;;;8.05;;
5987;SDS011;3021;51.000;6.980;2023-06-22T09:33:37;9.02;;;6.28;;
5987;SDS011;3021;51.000;6.980;2023-06-22T09:36:05;6.68;;;5.93;;
5987;SDS011;3021;51.000;6.980;2023-06-22T09:38:34;6.90;;;6.20;;
5987;SDS011;3021;51.000;6.980;2023-06-22T09:41:02;10.05;;;6.82;;
5987;SDS011;3021;51.000;6.980;2023-06-22T09:43:27;7.00;;;6.22;;
5987;SDS011;3021;51.000;6.980;2023-06-22T09:45:53;7.43;;;5.72;;
5987;SDS011;3021;51.000;6.980;2023-06-22T09:48:18;6.85;;;5.90;;
5987;SDS011;3021;51.000;6.980;2023-06-22T09:50:43;7.35;;;6.10;;
5987;SDS011;3021;51.000;6.980;2023-06-22T09:53:09;9.35;;;5.32;;
5987;SDS011;3021;51.000;6.980;2023-06-22T09:55:34;6.90;;;6.00;;
5987;SDS011;3021;51.000;6.980;2023-06-22T09:57:59;6.15;;;5.57;;
5987;SDS011;3021;51.000;6.980;2023-06-22T10:00:25;8.32;;;6.05;;
5987;SDS011;3021;51.000;6.980;2023-06-22T10:02:51;10.93;;;7.05;;
5987;SDS011;3021;51.000;6.980;2023-06-22T10:05:17;7.57;;;5.72;;
5987;SDS011;3021;51.000;6.980;2023-06-22T10:07:42;6.93;;;6.05;;
5987;SDS011;3021;51.000;6.980;2023-06-22T10:10:11;7.00;;;6.18;;
5987;SDS011;3021;51.000;6.980;2023-06-22T10:12:40;8.30;;;6.45;;
5987;SDS011;3021;51.000;6.980;2023-06-22T10:15:07;9.25;;;6.72;;
5987;SDS011;3021;51.000;6.980;2023-06-22T10:17:33;8.05;;;6.93;;
5987;SDS011;3021;51.000;6.980;2023-06-22T10:19:58;7.28;;;6.30;;
5987;SDS011;3021;51.000;6.980;2023-06-22T10:22:23;9.63;;;6.90;;
5987;SDS011;3021;51.000;6.980;2023-06-22T10:24:49;8.32;;;7.43;;
5987;SDS011;3021;51.000;6.980;2023-06-22T10:27:14;7.63;;;6.85;;
5987;SDS011;3021;51.000;6.980;2023-06-22T10:29:39;12.05;;;7.38;;
5987;SDS011;3021;51.000;6.980;2023-06-22T10:32:06;14.13;;;8.38;;
5987;SDS011;3021;51.000;6.980;2023-06-22T10:34:32;11.07;;;8.27;;
5987;SDS011;3021;51.000;6.980;2023-06-22T10:36:57;13.63;;;8.75;;
5987;SDS011;3021;51.000;6.980;2023-06-22T10:39:22;13.35;;;9.77;;
5987;SDS011;3021;51.000;6.980;2023-06-22T10:41:48;13.13;;;10.00;;
5987;SDS011;3021;51.000;6.980;2023-06-22T10:44:13;21.27;;;10.68;;
5987;SDS011;3021;51.000;6.980;2023-06-22T10:46:38;16.35;;;10.95;;
5987;SDS011;3021;51.000;6.980;2023-06-22T10:49:04;14.52;;;10.98;;
5987;SDS011;3021;51.000;6.980;2023-06-22T10:51:29;16.20;;;11.82;;
5987;SDS011;3021;51.000;6.980;2023-06-22T10:53:56;19.83;;;12.70;;
5987;SDS011;3021;51.000;6.980;2023-06-22T10:56:21;19.60;;;13.30;;
5987;SDS011;3021;51.000;6.980;2023-06-22T10:58:47;21.40;;;13.70;;
5987;SDS011;3021;51.000;6.980;2023-06-22T11:01:12;20.50;;;14.32;;
5987;SDS011;3021;51.000;6.980;2023-06-22T11:03:38;19.00;;;14.30;;
5987;SDS011;3021;51.000;6.980;2023-06-22T11:06:03;23.00;;;13.70;;
5987;SDS011;3021;51.000;6.980;2023-06-22T11:08:28;19.20;;;14.35;;
5987;SDS011;3021;51.000;6.980;2023-06-22T11:10:54;19.17;;;14.98;;
5987;SDS011;3021;51.000;6.980;2023-06-22T11:13:19;18.48;;;14.10;;
5987;SDS011;3021;51.000;6.980;2023-06-22T11:15:44;20.92;;;15.52;;
5987;SDS011;3021;51.000;6.980;2023-06-22T11:18:10;19.27;;;14.40;;
5987;SDS011;3021;51.000;6.980;2023-06-22T11:20:35;23.23;;;16.98;;
5987;SDS011;3021;51.000;6.980;2023-06-22T11:23:04;26.73;;;18.45;;
5987;SDS011;3021;51.000;6.980;2023-06-22T11:25:30;24.75;;;18.08;;
5987;SDS011;3021;51.000;6.980;2023-06-22T11:27:56;30.00;;;19.90;;
5987;SDS011;3021;51.000;6.980;2023-06-22T11:30:21;23.92;;;18.67;;
5987;SDS011;3021;51.000;6.980;2023-06-22T11:32:47;27.02;;;18.33;;
5987;SDS011;3021;51.000;6.980;2023-06-22T11:35:13;24.08;;;18.88;;
5987;SDS011;3021;51.000;6.980;2023-06-22T11:37:38;22.70;;;17.95;;
5987;SDS011;3021;51.000;6.980;2023-06-22T11:40:03;23.80;;;18.17;;
5987;SDS011;3021;51.000;6.980;2023-06-22T11:42:30;25.17;;;18.20;;
5987;SDS011;3021;51.000;6.980;2023-06-22T11:44:55;21.00;;;16.58;;
5987;SDS011;3021;51.000;6.980;2023-06-22T11:47:21;22.95;;;17.70;;
5987;SDS011;3021;51.000;6.980;2023-06-22T11:49:46;22.05;;;17.20;;
5987;SDS011;3021;51.000;6.980;2023-06-22T11:52:11;27.70;;;20.55;;
5987;SDS011;3021;51.000;6.980;2023-06-22T11:54:37;22.30;;;18.73;;
5987;SDS011;3021;51.000;6.980;2023-06-22T11:57:03;22.83;;;18.20;;
5987;SDS011;3021;51.000;6.980;2023-06-22T11:59:29;25.83;;;17.63;;
5987;SDS011;3021;51.000;6.980;2023-06-22T12:01:54;23.58;;;18.85;;
5987;SDS011;3021;51.000;6.980;2023-06-22T12:04:20;22.33;;;17.70;;
5987;SDS011;3021;51.000;6.980;2023-06-22T12:06:45;22.05;;;17.00;;
5987;SDS011;3021;51.000;6.980;2023-06-22T12:09:11;22.20;;;17.25;;
5987;SDS011;3021;51.000;6.980;2023-06-22T12:11:38;24.60;;;17.60;;
5987;SDS011;3021;51.000;6.980;2023-06-22T12:14:03;20.60;;;15.80;;
5987;SDS011;3021;51.000;6.980;2023-06-22T12:16:29;19.70;;;15.88;;
5987;SDS011;3021;51.000;6.980;2023-06-22T12:18:54;15.93;;;13.75;;
5987;SDS011;3021;51.000;6.980;2023-06-22T12:21:20;21.90;;;14.77;;
5987;SDS011;3021;51.000;6.980;2023-06-22T12:23:45;17.83;;;14.27;;
5987;SDS011;3021;51.000;6.980;2023-06-22T12:26:10;15.65;;;13.88;;
5987;SDS011;3021;51.000;6.980;2023-06-22T12:28:36;18.63;;;12.30;;
5987;SDS011;3021;51.000;6.980;2023-06-22T12:31:01;13.23;;;10.82;;
5987;SDS011;3021;51.000;6.980;2023-06-22T12:33:26;12.07;;;10.45;;
5987;SDS011;3021;51.000;6.980;2023-06-22T12:35:52;12.93;;;11.15;;
5987;SDS011;3021;51.000;6.980;2023-06-22T12:38:17;15.07;;;12.25;;
5987;SDS011;3021;51.000;6.980;2023-06-22T12:40:42;16.77;;;11.75;;
5987;SDS011;3021;51.000;6.980;2023-06-22T12:43:08;15.93;;;11.48;;
5987;SDS011;3021;51.000;6.980;2023-06-22T12:45:33;13.32;;;10.65;;
5987;SDS011;3021;51.000;6.980;2023-06-22T12:47:59;13.55;;;11.05;;
5987;SDS011;3021;51.000;6.980;2023-06-22T12:50:25;13.68;;;11.18;;
5987;SDS011;3021;51.000;6.980;2023-06-22T12:52:50;14.85;;;11.48;;
5987;SDS011;3021;51.000;6.980;2023-06-22T12:55:16;13.93;;;11.43;;
5987;SDS011;3021;51.000;6.980;2023-06-22T12:57:41;13.40;;;11.45;;
5987;SDS011;3021;51.000;6.980;2023-06-22T13:00:06;16.23;;;12.63;;
5987;SDS011;3021;51.000;6.980;2023-06-22T13:02:34;15.23;;;12.40;;
5987;SDS011;3021;51.000;6.980;2023-06-22T13:05:00;12.43;;;10.23;;
5987;SDS011;3021;51.000;6.980;2023-06-22T13:07:26;10.38;;;9.20;;
5987;SDS011;3021;51.000;6.980;2023-06-22T13:09:52;12.48;;;8.90;;
5987;SDS011;3021;51.000;6.980;2023-06-22T13:12:17;10.77;;;8.90;;
5987;SDS011;3021;51.000;6.980;2023-06-22T13:14:43;8.07;;;7.28;;
5987;SDS011;3021;51.000;6.980;2023-06-22T13:17:08;10.23;;;7.43;;
5987;SDS011;3021;51.000;6.980;2023-06-22T13:19:34;8.75;;;6.80;;
5987;SDS011;3021;51.000;6.980;2023-06-22T13:21:59;9.00;;;6.93;;
5987;SDS011;3021;51.000;6.980;2023-06-22T13:24:25;7.30;;;6.47;;
5987;SDS011;3021;51.000;6.980;2023-06-22T13:26:50;8.45;;;6.20;;
5987;SDS011;3021;51.000;6.980;2023-06-22T13:29:16;6.68;;;5.95;;
5987;SDS011;3021;51.000;6.980;2023-06-22T13:31:41;7.20;;;6.50;;
5987;SDS011;3021;51.000;6.980;2023-06-22T13:34:07;8.48;;;6.25;;
5987;SDS011;3021;51.000;6.980;2023-06-22T13:36:32;7.90;;;6.20;;
5987;SDS011;3021;51.000;6.980;2023-06-22T13:38:57;7.22;;;5.75;;
5987;SDS011;3021;51.000;6.980;2023-06-22T13:41:23;5.72;;;4.95;;
5987;SDS011;3021;51.000;6.980;2023-06-22T13:43:48;6.38;;;5.38;;
5987;SDS011;3021;51.000;6.980;2023-06-22T13:46:13;7.38;;;5.28;;
5987;SDS011;3021;51.000;6.980;2023-06-22T13:48:39;8.25;;;5.95;;
5987;SDS011;3021;51.000;6.980;2023-06-22T13:51:04;7.38;;;5.05;;
5987;SDS011;3021;51.000;6.980;2023-06-22T13:53:29;7.72;;;4.43;;
5987;SDS011;3021;51.000;6.980;2023-06-22T13:55:55;4.28;;;3.58;;
5987;SDS011;3021;51.000;6.980;2023-06-22T13:58:21;4.35;;;3.95;;
5987;SDS011;3021;51.000;6.980;2023-06-22T14:00:46;8.90;;;4.78;;
5987;SDS011;3021;51.000;6.980;2023-06-22T14:03:12;6.03;;;4.85;;
5987;SDS011;3021;51.000;6.980;2023-06-22T14:05:41;4.75;;;4.15;;
5987;SDS011;3021;51.000;6.980;2023-06-22T14:08:06;4.60;;;4.20;;
5987;SDS011;3021;51.000;6.980;2023-06-22T14:10:31;5.45;;;4.35;;
5987;SDS011;3021;51.000;6.980;2023-06-22T14:12:57;7.03;;;5.25;;
5987;SDS011;3021;51.000;6.980;2023-06-22T14:15:22;5.50;;;5.00;;
5987;SDS011;3021;51.000;6.980;2023-06-22T14:17:47;6.72;;;5.60;;
5987;SDS011;3021;51.000;6.980;2023-06-22T14:20:13;7.22;;;5.32;;
5987;SDS011;3021;51.000;6.980;2023-06-22T14:22:38;6.32;;;5.45;;
5987;SDS011;3021;51.000;6.980;2023-06-22T14:25:05;7.28;;;5.80;;
5987;SDS011;3021;51.000;6.980;2023-06-22T14:27:30;5.70;;;5.18;;
5987;SDS011;3021;51.000;6.980;2023-06-22T14:29:56;6.05;;;5.45;;
5987;SDS011;3021;51.000;6.980;2023-06-22T14:32:21;6.97;;;6.28;;
5987;SDS011;3021;51.000;6.980;2023-06-22T14:34:46;6.63;;;5.82;;
5987;SDS011;3021;51.000;6.980;2023-06-22T14:37:12;7.00;;;5.07;;
5987;SDS011;3021;51.000;6.980;2023-06-22T14:39:40;5.30;;;4.38;;
5987;SDS011;3021;51.000;6.980;2023-06-22T14:42:05;7.53;;;5.03;;
5987;SDS011;3021;51.000;6.980;2023-06-22T14:44:31;5.57;;;4.50;;
5987;SDS011;3021;51.000;6.980;2023-06-22T14:46:56;5.72;;;4.03;;
5987;SDS011;3021;51.000;6.980;2023-06-22T14:49:22;5.45;;;4.07;;
5987;SDS011;3021;51.000;6.980;2023-06-22T14:51:48;8.07;;;4.93;;
5987;SDS011;3021;51.000;6.980;2023-06-22T14:54:13;6.72;;;4.90;;
5987;SDS011;3021;51.000;6.980;2023-06-22T14:56:39;6.72;;;4.78;;
5987;SDS011;3021;51.000;6.980;2023-06-22T14:59:05;7.65;;;4.82;;
5987;SDS011;3021;51.000;6.980;2023-06-22T15:01:30;5.20;;;4.70;;
5987;SDS011;3021;51.000;6.980;2023-06-22T15:03:56;8.45;;;6.03;;
5987;SDS011;3021;51.000;6.980;2023-06-22T15:06:21;13.25;;;6.70;;
5987;SDS011;3021;51.000;6.980;2023-06-22T15:08:47;10.63;;;7.28;;